Time;durP1;ratioP1;P1;durP2;ratioP2;P2;SDS_P1;SDS_P2;PMS_P1;PMS_P2;Temp;Humidity;BMP_temperature;BMP_pressure;BME280_temperature;BME280_humidity;BME280_pressure;Samples;Min_cycle;Max_cycle;Signal;HPM_P1;HPM_P2
2023/09/24 00:00:13;;;;;;;3.78;3.35;;;;;;;12.15;77.37;98682.34;4989393;28;20320;-75
2023/09/24 00:02:40;;;;;;;3.33;2.88;;;;;;;12.39;76.47;98683.78;4987680;28;20207;-75
2023/09/24 00:05:08;;;;;;;3.45;2.08;;;;;;;12.39;76.19;98686.50;4988612;28;20207;-75
2023/09/24 00:07:35;;;;;;;3.13;2.90;;;;;;;12.39;76.54;98689.19;4988399;28;20207;-76
2023/09/24 00:10:03;;;;;;;3.80;3.00;;;;;;;12.31;77.37;98683.94;4988431;28;20202;-75
2023/09/24 00:12:30;;;;;;;4.20;3.90;;;;;;;12.10;78.50;98690.22;4988843;28;20725;-76
2023/09/24 00:14:57;;;;;;;4.80;3.70;;;;;;;12.14;78.43;98688.81;4988710;28;20693;-76
2023/09/24 00:17:24;;;;;;;3.95;3.65;;;;;;;12.18;77.86;98681.13;4986355;28;20198;-76
2023/09/24 00:19:51;;;;;;;4.20;3.80;;;;;;;12.04;78.57;98699.97;4987456;28;20286;-76
2023/09/24 00:22:18;;;;;;;3.10;2.90;;;;;;;12.06;78.58;98721.50;4988919;28;20301;-75
2023/09/24 00:24:45;;;;;;;3.45;3.03;;;;;;;12.13;78.02;98697.97;4988616;28;20317;-75
2023/09/24 00:27:14;;;;;;;3.45;3.15;;;;;;;11.96;79.52;98707.44;4988562;28;20214;-76
2023/09/24 00:29:41;;;;;;;4.25;3.58;;;;;;;11.91;79.51;98710.72;4987821;28;20309;-75
2023/09/24 00:32:07;;;;;;;4.70;4.20;;;;;;;11.85;80.17;98713.38;4987563;28;20677;-76
2023/09/24 00:34:34;;;;;;;5.45;4.75;;;;;;;11.62;81.46;98719.78;4986443;28;20215;-76
2023/09/24 00:37:01;;;;;;;5.28;4.80;;;;;;;11.59;81.64;98716.63;4990928;28;20230;-75
2023/09/24 00:39:28;;;;;;;5.00;4.35;;;;;;;11.62;81.43;98722.50;4992195;28;20298;-76
2023/09/24 00:41:55;;;;;;;4.45;3.90;;;;;;;11.45;82.62;98713.75;4992150;28;20261;-76
2023/09/24 00:44:23;;;;;;;5.50;4.38;;;;;;;11.55;82.38;98727.00;4992135;28;20231;-76
2023/09/24 00:46:50;;;;;;;4.70;4.22;;;;;;;11.50;82.71;98729.44;4991285;28;20212;-76
2023/09/24 00:49:17;;;;;;;4.75;4.38;;;;;;;11.56;82.46;98723.28;4992169;28;20227;-76
2023/09/24 00:51:44;;;;;;;5.03;4.63;;;;;;;11.75;81.85;98716.38;4990390;28;20203;-76
2023/09/24 00:54:11;;;;;;;5.35;4.05;;;;;;;11.60;82.02;98719.16;4991892;28;20629;-76
2023/09/24 00:56:38;;;;;;;5.88;4.60;;;;;;;11.72;81.74;98711.31;4991215;28;20214;-75
2023/09/24 00:59:06;;;;;;;4.90;4.40;;;;;;;11.72;82.03;98722.16;4990643;28;20288;-76
2023/09/24 01:01:34;;;;;;;4.50;4.20;;;;;;;11.72;82.02;98714.03;4991146;28;20210;-76
2023/09/24 01:04:03;;;;;;;4.68;4.32;;;;;;;11.52;82.33;98726.56;4991708;28;20223;-76
2023/09/24 01:06:30;;;;;;;5.30;4.90;;;;;;;11.71;81.97;98737.59;4990824;28;20293;-75
2023/09/24 01:08:57;;;;;;;4.93;4.40;;;;;;;11.68;81.89;98735.31;4991324;28;20333;-76
2023/09/24 01:11:27;;;;;;;5.00;4.60;;;;;;;11.57;82.36;98740.38;4990587;28;20309;-75
2023/09/24 01:13:54;;;;;;;5.32;4.82;;;;;;;11.61;82.26;98741.69;4990776;28;20245;-76
2023/09/24 01:16:21;;;;;;;5.93;5.43;;;;;;;11.56;83.87;98746.81;4990843;28;20226;-75
2023/09/24 01:18:49;;;;;;;5.10;4.60;;;;;;;11.71;82.99;98742.19;4991119;28;20277;-76
2023/09/24 01:21:17;;;;;;;4.90;4.50;;;;;;;11.69;83.11;98734.28;4989872;28;20231;-75
2023/09/24 01:23:48;;;;;;;6.07;5.53;;;;;;;11.60;83.34;98740.00;4990968;28;20231;-76
2023/09/24 01:26:18;;;;;;;5.28;4.80;;;;;;;11.52;83.71;98748.25;4991258;28;20202;-76
2023/09/24 01:28:45;;;;;;;4.80;4.03;;;;;;;11.48;82.96;98741.50;4990130;28;20704;-76
2023/09/24 01:31:13;;;;;;;6.40;5.85;;;;;;;11.25;84.07;98736.25;4990919;28;20203;-76
2023/09/24 01:33:40;;;;;;;5.70;4.60;;;;;;;11.25;84.33;98742.50;4990639;28;20690;-76
2023/09/24 01:36:10;;;;;;;5.93;5.43;;;;;;;11.32;83.81;98727.16;4991070;28;20207;-75
2023/09/24 01:38:40;;;;;;;5.60;5.10;;;;;;;11.38;83.55;98742.66;4989269;28;20199;-75
2023/09/24 01:41:10;;;;;;;5.35;4.60;;;;;;;11.31;83.90;98741.75;4990395;28;20257;-76
2023/09/24 01:43:36;;;;;;;5.55;5.05;;;;;;;11.37;83.41;98737.44;4990213;28;20305;-75
2023/09/24 01:46:05;;;;;;;5.78;4.60;;;;;;;11.26;84.04;98736.06;4990086;28;20207;-75
2023/09/24 01:48:33;;;;;;;4.75;4.30;;;;;;;11.22;84.24;98731.19;4989488;28;20760;-75
2023/09/24 01:51:05;;;;;;;5.72;5.10;;;;;;;11.19;83.92;98737.84;4990255;28;20305;-75
2023/09/24 01:53:33;;;;;;;6.35;5.85;;;;;;;11.00;84.47;98738.41;4990587;28;20681;-76
2023/09/24 01:56:00;;;;;;;5.63;5.10;;;;;;;10.80;86.04;98742.69;4987608;28;20213;-75
2023/09/24 01:58:28;;;;;;;5.15;4.75;;;;;;;10.67;86.63;98744.19;4990540;28;20203;-75
2023/09/24 02:00:56;;;;;;;6.32;5.80;;;;;;;10.47;87.95;98745.75;4990791;28;20618;-75
2023/09/24 02:03:22;;;;;;;5.93;5.32;;;;;;;10.59;87.59;98744.28;4989895;28;20222;-76
2023/09/24 02:05:49;;;;;;;6.45;5.38;;;;;;;10.65;87.61;98743.53;4989733;28;20207;-75
2023/09/24 02:08:16;;;;;;;5.75;5.28;;;;;;;10.71;86.93;98744.69;4989720;28;20282;-75
2023/09/24 02:10:43;;;;;;;5.72;5.32;;;;;;;10.72;86.77;98741.75;4990189;28;20213;-75
2023/09/24 02:13:12;;;;;;;5.25;4.80;;;;;;;10.70;86.98;98749.25;4988748;28;20222;-76
2023/09/24 02:15:40;;;;;;;8.25;6.07;;;;;;;10.45;87.49;98739.66;4990159;28;20294;-75
2023/09/24 02:18:07;;;;;;;6.63;6.10;;;;;;;10.54;87.44;98744.00;4989464;28;20257;-75
2023/09/24 02:20:35;;;;;;;6.60;6.10;;;;;;;10.50;87.41;98748.09;4990083;28;20199;-75
2023/09/24 02:23:04;;;;;;;8.50;5.40;;;;;;;10.51;87.63;98749.78;4989454;28;20234;-75
2023/09/24 02:25:32;;;;;;;5.80;5.30;;;;;;;10.48;88.37;98747.44;4989898;28;20199;-74
2023/09/24 02:28:00;;;;;;;5.45;5.05;;;;;;;10.28;89.72;98749.81;4989939;28;20289;-75
2023/09/24 02:30:29;;;;;;;5.55;5.05;;;;;;;10.26;89.44;98746.47;4987705;28;20233;-75
2023/09/24 02:32:57;;;;;;;6.10;5.03;;;;;;;10.49;88.37;98748.28;4989780;28;20634;-75
2023/09/24 02:35:25;;;;;;;5.47;4.95;;;;;;;10.31;88.04;98716.16;4989935;28;20242;-75
2023/09/24 02:37:53;;;;;;;6.75;6.15;;;;;;;10.55;87.90;98759.22;4988573;28;20563;-75
2023/09/24 02:40:22;;;;;;;6.60;6.00;;;;;;;10.54;88.33;98762.09;4989879;28;20210;-75
2023/09/24 02:42:51;;;;;;;6.40;5.75;;;;;;;10.53;88.63;98769.38;4989464;28;20222;-75
2023/09/24 02:45:18;;;;;;;6.43;5.78;;;;;;;10.62;87.83;98764.72;4989437;28;20655;-75
2023/09/24 02:47:46;;;;;;;8.68;5.50;;;;;;;10.62;88.29;98762.03;4988430;28;20212;-75
2023/09/24 02:50:14;;;;;;;5.88;5.40;;;;;;;10.57;87.61;98767.97;4989455;28;20222;-75
2023/09/24 02:52:42;;;;;;;6.50;5.95;;;;;;;10.50;88.31;98775.16;4987658;28;20306;-75
2023/09/24 02:55:13;;;;;;;6.40;5.90;;;;;;;10.48;88.48;98777.19;4989590;28;20566;-75
2023/09/24 02:57:41;;;;;;;7.18;6.47;;;;;;;10.27;89.09;98764.38;4989391;28;20607;-74
2023/09/24 03:00:12;;;;;;;6.20;5.70;;;;;;;10.19;89.92;98769.84;4989766;28;20206;-74
2023/09/24 03:02:39;;;;;;;7.60;6.80;;;;;;;10.06;89.94;98772.31;4989685;28;20225;-75
2023/09/24 03:05:08;;;;;;;7.47;6.72;;;;;;;10.13;90.19;98772.41;4987694;28;20221;-75
2023/09/24 03:07:37;;;;;;;8.25;7.50;;;;;;;9.98;90.25;98778.59;4987445;28;20643;-75
2023/09/24 03:10:07;;;;;;;8.27;7.40;;;;;;;9.90;90.83;98781.38;4989322;28;20249;-75
2023/09/24 03:12:34;;;;;;;8.55;7.75;;;;;;;9.78;91.04;98786.31;4988867;28;20645;-75
2023/09/24 03:15:01;;;;;;;8.70;7.97;;;;;;;9.69;91.76;98787.41;4989369;28;20205;-74
2023/09/24 03:17:28;;;;;;;8.50;7.70;;;;;;;9.59;92.06;98788.66;4988682;28;20204;-75
2023/09/24 03:19:55;;;;;;;7.22;6.53;;;;;;;9.35;92.88;98800.44;4988389;28;20321;-75
2023/09/24 03:22:22;;;;;;;7.32;6.82;;;;;;;9.40;92.94;98798.91;4986188;28;20292;-75
2023/09/24 03:24:50;;;;;;;7.85;7.15;;;;;;;9.41;92.18;98787.06;4988005;28;20307;-75
2023/09/24 03:27:17;;;;;;;9.35;7.25;;;;;;;9.42;92.43;98796.81;4989048;28;20233;-75
2023/09/24 03:29:44;;;;;;;7.80;7.20;;;;;;;9.28;93.13;98803.00;4988553;28;20328;-74
2023/09/24 03:32:09;;;;;;;7.15;6.53;;;;;;;9.42;92.26;98798.72;4988963;28;20200;-75
2023/09/24 03:34:36;;;;;;;9.33;8.47;;;;;;;9.07;92.95;98821.66;4987884;28;20706;-75
2023/09/24 03:37:03;;;;;;;7.18;6.53;;;;;;;8.98;94.17;98814.56;4986403;28;20229;-75
2023/09/24 03:39:30;;;;;;;8.80;7.95;;;;;;;8.94;94.00;98818.63;4988794;28;20235;-75
2023/09/24 03:41:58;;;;;;;7.70;7.10;;;;;;;8.87;94.32;98823.03;4988528;28;20282;-75
2023/09/24 03:44:25;;;;;;;6.43;5.82;;;;;;;8.94;94.32;98827.56;4988649;28;20308;-75
2023/09/24 03:46:51;;;;;;;9.32;8.32;;;;;;;8.78;94.46;98819.50;4988768;28;20668;-75
2023/09/24 03:49:18;;;;;;;7.55;6.65;;;;;;;8.91;94.53;98818.97;4986317;28;20312;-75
2023/09/24 03:51:45;;;;;;;7.90;7.20;;;;;;;8.87;93.99;98823.03;4986834;28;20629;-75
2023/09/24 03:54:11;;;;;;;7.75;7.15;;;;;;;8.89;93.95;98823.69;4987967;28;20232;-75
2023/09/24 03:56:39;;;;;;;7.47;6.78;;;;;;;8.86;93.87;98821.34;4987135;28;20229;-75
2023/09/24 03:59:07;;;;;;;8.73;7.85;;;;;;;8.75;94.51;98831.50;4988385;28;20205;-75
2023/09/24 04:01:34;;;;;;;8.65;7.95;;;;;;;8.79;94.64;98834.66;4988495;28;20300;-74
2023/09/24 04:04:02;;;;;;;14.27;8.88;;;;;;;8.72;94.56;98837.25;4987644;28;20255;-75
2023/09/24 04:06:29;;;;;;;9.35;8.40;;;;;;;8.71;95.21;98849.03;4987791;28;20208;-75
2023/09/24 04:08:56;;;;;;;9.57;8.57;;;;;;;8.58;95.70;98847.84;4988070;28;20256;-75
2023/09/24 04:11:22;;;;;;;10.65;8.88;;;;;;;8.60;96.15;98857.47;4986382;28;20201;-75
2023/09/24 04:13:49;;;;;;;11.30;10.30;;;;;;;8.72;95.86;98856.13;4988851;28;20306;-75
2023/09/24 04:16:17;;;;;;;11.15;10.18;;;;;;;8.85;95.67;98862.84;4988696;28;20228;-75
2023/09/24 04:18:44;;;;;;;13.15;11.90;;;;;;;8.76;95.97;98859.34;4987198;28;20213;-75
2023/09/24 04:21:16;;;;;;;14.43;13.18;;;;;;;8.77;95.64;98860.16;4987409;28;20665;-75
2023/09/24 04:23:43;;;;;;;13.85;12.70;;;;;;;8.85;95.79;98862.84;4988529;28;20226;-75
2023/09/24 04:26:18;;;;;;;13.70;12.70;;;;;;;8.81;96.01;98865.03;4988258;28;20287;-75
2023/09/24 04:28:45;;;;;;;13.38;12.38;;;;;;;8.82;96.02;98869.41;4987776;28;20669;-75
2023/09/24 04:31:12;;;;;;;16.55;15.15;;;;;;;8.74;96.45;98867.59;4986344;28;20276;-75
2023/09/24 04:33:41;;;;;;;12.40;11.40;;;;;;;8.84;96.03;98872.78;4986168;28;20279;-75
2023/09/24 04:36:09;;;;;;;12.60;11.52;;;;;;;8.89;95.82;98875.81;4987287;28;20220;-75
2023/09/24 04:38:36;;;;;;;16.17;14.68;;;;;;;8.75;96.05;98874.69;4986566;28;20254;-75
2023/09/24 04:41:03;;;;;;;20.48;18.83;;;;;;;8.91;95.63;98884.59;4988436;28;20204;-75
2023/09/24 04:43:30;;;;;;;23.73;21.70;;;;;;;8.99;95.08;98884.59;4987687;28;20303;-75
2023/09/24 04:45:57;;;;;;;15.20;13.98;;;;;;;8.93;95.13;98879.03;4986679;28;20361;-75
2023/09/24 04:48:23;;;;;;;15.85;14.63;;;;;;;8.81;95.63;98883.09;4987990;28;20613;-75
2023/09/24 04:50:55;;;;;;;13.88;12.75;;;;;;;8.95;95.13;98887.81;4987403;28;20665;-75
2023/09/24 04:53:22;;;;;;;14.30;13.20;;;;;;;9.01;94.70;98889.81;4987083;28;20215;-75
2023/09/24 04:55:49;;;;;;;11.30;10.50;;;;;;;9.01;94.11;98887.97;4988104;28;20204;-75
2023/09/24 04:58:16;;;;;;;11.85;10.85;;;;;;;8.75;95.42;98892.72;4987877;28;20200;-76
2023/09/24 05:00:42;;;;;;;10.18;9.38;;;;;;;8.81;95.24;98893.88;4986738;28;20231;-75
2023/09/24 05:03:09;;;;;;;10.57;9.77;;;;;;;8.88;94.81;98895.72;4987953;28;20298;-75
2023/09/24 05:05:36;;;;;;;9.30;8.38;;;;;;;8.84;94.98;98893.53;4987542;28;20288;-75
2023/09/24 05:08:04;;;;;;;10.55;9.63;;;;;;;8.77;95.29;98897.97;4986559;28;20291;-75
2023/09/24 05:10:31;;;;;;;9.55;8.65;;;;;;;8.63;95.57;98897.59;4987695;28;20256;-75
2023/09/24 05:12:58;;;;;;;8.60;7.90;;;;;;;8.64;95.86;98903.84;4987785;28;20280;-75
2023/09/24 05:15:25;;;;;;;7.97;7.38;;;;;;;8.53;96.33;98907.72;4987386;28;20307;-75
2023/09/24 05:17:52;;;;;;;8.40;7.78;;;;;;;8.59;95.80;98917.84;4986067;28;20234;-75
2023/09/24 05:20:19;;;;;;;8.10;7.25;;;;;;;8.52;95.53;98916.81;4987261;28;20222;-75
2023/09/24 05:22:45;;;;;;;8.45;7.75;;;;;;;8.37;96.41;98918.50;4989002;28;20282;-75
2023/09/24 05:25:14;;;;;;;7.85;7.25;;;;;;;8.49;95.84;98917.16;4990661;28;20203;-75
2023/09/24 05:27:41;;;;;;;9.43;8.48;;;;;;;8.58;95.65;98918.84;4990907;28;20204;-75
2023/09/24 05:30:08;;;;;;;9.20;8.07;;;;;;;8.66;95.28;98921.56;4991796;28;20233;-75
2023/09/24 05:32:35;;;;;;;9.85;8.93;;;;;;;8.69;95.02;98926.63;4990514;28;20223;-75
2023/09/24 05:35:03;;;;;;;9.70;9.00;;;;;;;8.55;95.74;98919.19;4988799;28;20240;-75
2023/09/24 05:37:30;;;;;;;9.20;8.40;;;;;;;8.55;95.93;98924.59;4990428;28;20287;-75
2023/09/24 05:39:57;;;;;;;9.32;8.43;;;;;;;8.53;96.03;98928.47;4990826;28;20205;-75
2023/09/24 05:42:25;;;;;;;10.15;9.27;;;;;;;8.62;96.27;98920.22;4990686;28;20254;-75
2023/09/24 05:44:52;;;;;;;9.30;8.50;;;;;;;8.84;95.88;98917.84;4991340;28;20281;-76
2023/09/24 05:47:19;;;;;;;9.40;8.55;;;;;;;9.07;95.22;98927.78;4990320;28;20287;-76
2023/09/24 05:49:46;;;;;;;8.40;7.60;;;;;;;9.13;95.39;98931.63;4986919;28;20231;-75
2023/09/24 05:52:12;;;;;;;9.65;8.90;;;;;;;9.35;94.58;98939.06;4987824;28;20243;-75
2023/09/24 05:54:41;;;;;;;8.13;7.50;;;;;;;9.63;93.12;98928.66;4990809;28;20677;-76
2023/09/24 05:57:08;;;;;;;7.32;6.72;;;;;;;9.87;92.04;98925.00;4990536;28;20245;-75
2023/09/24 05:59:36;;;;;;;7.00;6.40;;;;;;;9.98;91.41;98916.53;4990411;28;20211;-75
2023/09/24 06:02:03;;;;;;;6.07;5.47;;;;;;;10.30;89.92;98920.09;4990396;28;20206;-75
2023/09/24 06:04:30;;;;;;;5.50;4.95;;;;;;;10.57;88.44;98922.28;4989927;28;20653;-75
2023/09/24 06:06:57;;;;;;;4.50;4.18;;;;;;;11.08;85.97;98920.63;4990330;28;20234;-76
2023/09/24 06:09:23;;;;;;;3.90;3.60;;;;;;;11.40;84.10;98929.47;4989272;28;20198;-76
2023/09/24 06:11:50;;;;;;;5.97;4.10;;;;;;;11.36;82.85;98929.03;4989849;28;20207;-76
2023/09/24 06:14:17;;;;;;;5.45;3.97;;;;;;;11.47;82.68;98935.00;4990422;28;20238;-76
2023/09/24 06:16:45;;;;;;;4.10;3.80;;;;;;;11.90;80.71;98933.34;4990251;28;20206;-75
2023/09/24 06:19:12;;;;;;;3.70;3.40;;;;;;;11.89;80.50;98932.50;4986301;28;20199;-76
2023/09/24 06:21:39;;;;;;;4.03;3.70;;;;;;;12.14;79.26;98932.19;4985011;28;20294;-76
2023/09/24 06:24:06;;;;;;;3.28;3.08;;;;;;;12.49;77.86;98942.22;4988219;28;20234;-76
2023/09/24 06:26:35;;;;;;;3.65;3.35;;;;;;;12.55;77.43;98952.31;4987776;28;20199;-75
2023/09/24 06:29:01;;;;;;;4.93;3.88;;;;;;;12.66;76.10;98949.09;4988982;28;20286;-76
2023/09/24 06:31:28;;;;;;;3.95;3.65;;;;;;;12.32;77.87;98948.91;4989690;28;20233;-76
2023/09/24 06:33:57;;;;;;;4.40;3.90;;;;;;;12.09;78.52;98947.16;4988956;28;20245;-76
2023/09/24 06:36:24;;;;;;;4.32;3.92;;;;;;;12.33;78.17;98947.88;4989919;28;20316;-76
2023/09/24 06:38:51;;;;;;;3.72;3.17;;;;;;;12.66;76.62;98954.53;4989068;28;20678;-76
2023/09/24 06:41:18;;;;;;;3.88;3.58;;;;;;;13.14;74.52;98954.75;4989627;28;20671;-76
2023/09/24 06:43:44;;;;;;;3.72;3.40;;;;;;;13.20;74.07;98954.00;4989582;28;20245;-76
2023/09/24 06:46:11;;;;;;;3.47;3.17;;;;;;;13.32;73.56;98944.25;4988531;28;20194;-76
2023/09/24 06:48:38;;;;;;;3.40;3.10;;;;;;;14.33;70.30;98947.34;4988394;28;20219;-76
2023/09/24 06:51:10;;;;;;;3.40;3.10;;;;;;;14.42;69.13;98947.00;4989141;28;20832;-76
2023/09/24 06:53:38;;;;;;;2.83;2.63;;;;;;;14.29;69.20;98946.94;4989265;28;21185;-76
2023/09/24 06:56:06;;;;;;;3.80;3.23;;;;;;;15.14;66.33;98942.75;4988377;28;20471;-76
2023/09/24 06:58:34;;;;;;;3.20;2.90;;;;;;;15.41;65.33;98944.41;4987125;28;20467;-76
2023/09/24 07:01:01;;;;;;;3.63;2.90;;;;;;;15.71;64.54;98946.72;4987920;28;20468;-76
2023/09/24 07:03:28;;;;;;;3.10;2.80;;;;;;;15.34;64.35;98945.47;4988596;28;20572;-76
2023/09/24 07:05:54;;;;;;;3.23;2.93;;;;;;;15.81;64.33;98952.59;4989087;28;20799;-76
2023/09/24 07:08:23;;;;;;;3.00;2.80;;;;;;;16.25;61.69;98948.22;4989257;28;20540;-76
2023/09/24 07:11:24;;;;;;;3.20;2.90;;;;;;;16.73;60.16;98941.31;4989209;28;20544;-77
2023/09/24 07:13:51;;;;;;;3.17;2.87;;;;;;;16.68;59.48;98957.53;4989670;28;20481;-76
2023/09/24 07:16:20;;;;;;;3.23;2.93;;;;;;;16.06;62.17;98969.94;4987673;28;20540;-76
2023/09/24 07:18:48;;;;;;;3.43;3.13;;;;;;;16.10;62.04;98968.47;4986174;28;20491;-76
2023/09/24 07:21:15;;;;;;;2.90;2.60;;;;;;;16.12;62.03;98960.06;4989245;28;20469;-76
2023/09/24 07:23:43;;;;;;;3.10;2.80;;;;;;;16.85;59.69;98976.16;4989176;28;20473;-76
2023/09/24 07:26:10;;;;;;;2.90;2.70;;;;;;;16.76;59.86;98978.31;4986027;28;20450;-76
2023/09/24 07:28:37;;;;;;;2.93;2.73;;;;;;;16.96;59.07;98980.91;4988134;28;20454;-76
2023/09/24 07:31:04;;;;;;;2.70;2.50;;;;;;;17.07;59.33;98972.84;4987754;28;20486;-76
2023/09/24 07:33:31;;;;;;;3.87;2.70;;;;;;;16.65;60.00;98974.38;4987983;28;20549;-75
2023/09/24 07:35:57;;;;;;;3.20;2.90;;;;;;;17.26;58.56;98972.91;4987207;28;20870;-76
2023/09/24 07:38:24;;;;;;;4.60;3.00;;;;;;;17.38;57.68;98962.94;4987539;28;20827;-76
2023/09/24 07:40:52;;;;;;;2.90;2.60;;;;;;;17.64;57.61;98972.81;4987979;28;20469;-77
2023/09/24 07:43:19;;;;;;;2.67;2.47;;;;;;;17.82;56.23;98972.91;4985704;28;20476;-77
2023/09/24 07:45:47;;;;;;;3.17;2.87;;;;;;;17.78;56.58;98979.88;4988173;28;20483;-76
2023/09/24 07:48:14;;;;;;;2.60;2.40;;;;;;;18.16;55.28;98967.91;4988839;28;20457;-77
2023/09/24 07:50:41;;;;;;;2.67;2.40;;;;;;;18.66;54.28;98982.28;4987871;28;20918;-76
2023/09/24 07:53:09;;;;;;;4.37;2.57;;;;;;;18.10;55.27;98986.94;4988590;28;20478;-77
2023/09/24 07:55:37;;;;;;;2.87;2.67;;;;;;;17.81;55.89;98982.19;4985173;28;20473;-76
2023/09/24 07:58:06;;;;;;;2.67;2.47;;;;;;;17.95;55.58;98983.72;4987828;28;20852;-76
2023/09/24 08:00:33;;;;;;;2.70;2.50;;;;;;;18.84;53.62;98970.44;4988831;28;20488;-77
2023/09/24 08:03:00;;;;;;;2.63;2.43;;;;;;;19.79;50.97;98971.28;4988653;28;20500;-76
2023/09/24 08:05:27;;;;;;;3.33;2.33;;;;;;;19.94;49.96;98965.28;4988120;28;20489;-76
2023/09/24 08:07:54;;;;;;;3.07;2.60;;;;;;;20.05;49.51;98973.53;4988206;28;20455;-77
2023/09/24 08:10:20;;;;;;;2.70;2.50;;;;;;;19.94;50.25;98974.38;4987586;28;20471;-77
2023/09/24 08:12:47;;;;;;;2.90;2.47;;;;;;;20.10;50.23;98981.91;4986892;28;20474;-77
2023/09/24 08:15:15;;;;;;;2.50;2.07;;;;;;;20.56;48.69;98985.66;4988487;28;20489;-77
2023/09/24 08:17:42;;;;;;;2.60;2.40;;;;;;;20.88;47.33;98979.69;4987200;28;20625;-76
2023/09/24 08:20:09;;;;;;;3.30;2.53;;;;;;;21.34;46.46;98981.41;4988298;28;20449;-76
2023/09/24 08:22:36;;;;;;;4.33;2.50;;;;;;;20.79;47.95;98991.06;4987879;28;20552;-75
2023/09/24 08:25:05;;;;;;;3.13;2.20;;;;;;;20.90;48.41;98986.63;4988243;28;20446;-76
2023/09/24 08:27:33;;;;;;;2.80;2.40;;;;;;;21.40;46.79;98984.00;4988349;28;20516;-76
2023/09/24 08:30:00;;;;;;;2.50;2.00;;;;;;;21.93;44.81;98979.91;4987193;28;20552;-77
2023/09/24 08:32:28;;;;;;;2.00;1.70;;;;;;;21.76;44.48;98979.09;4986747;28;20502;-77
2023/09/24 08:34:54;;;;;;;3.10;2.23;;;;;;;22.06;44.45;98979.59;4988621;28;20446;-76
2023/09/24 08:37:21;;;;;;;2.67;2.07;;;;;;;22.17;43.32;98982.47;4987664;28;20477;-76
2023/09/24 08:39:48;;;;;;;2.30;1.97;;;;;;;22.22;43.65;98988.06;4988670;28;20485;-77
2023/09/24 08:42:15;;;;;;;2.03;1.83;;;;;;;21.77;43.92;98987.06;4988046;28;20477;-77
2023/09/24 08:44:43;;;;;;;2.00;1.63;;;;;;;21.57;44.26;98980.41;4988240;28;20604;-76
2023/09/24 08:47:10;;;;;;;1.80;1.70;;;;;;;21.88;44.83;98988.06;4985543;28;20454;-77
2023/09/24 08:49:38;;;;;;;2.20;2.00;;;;;;;21.96;43.34;98995.94;4988400;28;20936;-77
2023/09/24 08:52:07;;;;;;;2.60;2.40;;;;;;;22.41;43.49;98987.53;4988258;28;20593;-77
2023/09/24 08:54:34;;;;;;;2.20;2.00;;;;;;;22.00;43.24;98983.31;4987911;28;20930;-77
2023/09/24 08:57:01;;;;;;;2.13;1.93;;;;;;;21.59;43.64;98983.75;4988978;28;20465;-77
2023/09/24 08:59:29;;;;;;;2.67;2.27;;;;;;;21.09;45.81;98979.84;4990884;28;20466;-76
2023/09/24 09:01:56;;;;;;;2.70;2.33;;;;;;;20.94;46.28;98982.28;4991725;28;20474;-77
2023/09/24 09:04:22;;;;;;;3.03;2.13;;;;;;;20.79;47.13;98982.00;4990785;28;20508;-77
2023/09/24 09:06:51;;;;;;;7.03;2.23;;;;;;;21.18;46.38;98973.91;4991702;28;20883;-77
2023/09/24 09:09:24;;;;;;;2.70;2.20;;;;;;;21.04;46.62;98976.16;4991630;28;20450;-77
2023/09/24 09:11:51;;;;;;;2.23;2.00;;;;;;;21.28;45.79;98972.22;4991008;28;20564;-77
2023/09/24 09:14:32;;;;;;;2.30;2.00;;;;;;;22.36;42.77;98968.13;4988163;28;20540;-77
2023/09/24 09:16:59;;;;;;;2.13;1.90;;;;;;;22.27;41.82;98968.81;4989844;28;20480;-77
2023/09/24 09:19:27;;;;;;;1.97;1.77;;;;;;;23.50;39.25;98960.84;4989132;28;20462;-77
2023/09/24 09:21:55;;;;;;;2.53;1.70;;;;;;;23.63;39.23;98957.66;4991467;28;20893;-77
2023/09/24 09:24:23;;;;;;;1.87;1.67;;;;;;;24.30;37.16;98968.09;4991658;28;20472;-77
2023/09/24 09:26:54;;;;;;;2.13;1.60;;;;;;;24.06;37.39;98957.41;4991668;28;20459;-77
2023/09/24 09:29:22;;;;;;;2.20;2.00;;;;;;;24.10;37.05;98955.78;4990536;28;20453;-77
2023/09/24 09:31:49;;;;;;;2.27;1.70;;;;;;;23.95;37.65;98961.22;4990846;28;20553;-77
2023/09/24 09:34:16;;;;;;;2.00;1.50;;;;;;;23.82;37.87;98953.38;4989959;28;20947;-77
2023/09/24 09:36:43;;;;;;;2.90;1.87;;;;;;;23.61;37.32;98959.84;4991832;28;20456;-77
2023/09/24 09:39:11;;;;;;;1.70;1.60;;;;;;;24.17;37.59;98949.16;4993168;28;20532;-76
2023/09/24 09:41:41;;;;;;;3.27;2.33;;;;;;;23.11;37.97;98961.00;4993267;28;20472;-77
2023/09/24 09:44:08;;;;;;;2.83;1.77;;;;;;;22.82;38.98;98948.56;4997449;28;20462;-77
2023/09/24 09:46:38;;;;;;;3.30;1.80;;;;;;;23.18;37.70;98941.47;5002522;28;20458;-77
2023/09/24 09:49:07;;;;;;;1.80;1.30;;;;;;;23.53;35.67;98952.88;4991140;28;20909;-77
2023/09/24 09:51:39;;;;;;;2.37;1.50;;;;;;;22.74;36.75;98953.41;4994173;28;20475;-77
2023/09/24 09:54:07;;;;;;;2.00;1.70;;;;;;;23.21;36.91;98952.00;4993710;28;20466;-77
2023/09/24 09:56:36;;;;;;;3.10;1.63;;;;;;;23.82;35.56;98953.38;4992507;28;21032;-77
2023/09/24 09:59:04;;;;;;;2.30;1.70;;;;;;;23.65;35.89;98959.06;4991442;28;20826;-77
2023/09/24 10:01:31;;;;;;;1.70;1.60;;;;;;;24.40;34.11;98954.28;4992113;28;20821;-77
2023/09/24 10:03:59;;;;;;;2.83;1.67;;;;;;;24.46;34.17;98953.22;4991755;28;20524;-77
2023/09/24 10:06:26;;;;;;;2.00;1.80;;;;;;;24.44;33.92;98947.97;4990126;28;20462;-77
2023/09/24 10:08:53;;;;;;;2.20;1.50;;;;;;;24.81;31.85;98948.94;4988655;28;20542;-78
2023/09/24 10:11:55;;;;;;;2.43;1.77;;;;;;;24.69;30.64;98947.22;4989902;28;20500;-77
2023/09/24 10:14:33;;;;;;;1.87;1.63;;;;;;;24.44;32.32;98938.81;4983366;28;20465;-77
2023/09/24 10:17:24;;;;;;;1.87;1.50;;;;;;;24.36;32.95;98933.81;4990495;28;20497;-77
2023/09/24 10:19:52;;;;;;;3.07;1.80;;;;;;;24.98;32.26;98936.56;4990518;28;20457;-78
2023/09/24 10:22:26;;;;;;;1.70;1.60;;;;;;;24.43;33.04;98939.91;4990144;28;20937;-77
2023/09/24 10:24:53;;;;;;;2.73;1.87;;;;;;;24.13;33.43;98944.16;4989237;28;20588;-78
2023/09/24 10:27:32;;;;;;;1.97;1.73;;;;;;;23.38;33.97;98941.69;4989010;28;20461;-77
2023/09/24 10:30:05;;;;;;;2.03;1.60;;;;;;;23.30;34.21;98939.38;4990334;28;20845;-77
2023/09/24 10:32:50;;;;;;;2.07;1.73;;;;;;;23.75;33.68;98936.16;4990262;28;20580;-77
2023/09/24 10:35:18;;;;;;;2.30;1.73;;;;;;;23.85;33.62;98952.00;4990404;28;20486;-77
2023/09/24 10:38:12;;;;;;;2.43;1.70;;;;;;;24.70;31.39;98942.50;4989495;28;20962;-77
2023/09/24 10:41:06;;;;;;;2.17;1.70;;;;;;;25.22;30.70;98939.63;4987880;28;20505;-77
2023/09/24 10:43:34;;;;;;;2.10;1.60;;;;;;;25.47;30.46;98940.75;4989799;28;21370;-77
2023/09/24 10:46:28;;;;;;;1.90;1.60;;;;;;;26.07;28.30;98935.16;4989873;28;20561;-77
2023/09/24 10:48:55;;;;;;;2.40;1.57;;;;;;;26.16;28.21;98937.38;4990166;28;20489;-78
2023/09/24 10:51:22;;;;;;;2.03;1.83;;;;;;;26.39;27.35;98936.75;4989413;28;21004;-77
2023/09/24 10:53:48;;;;;;;2.33;1.90;;;;;;;26.78;27.66;98923.81;4989619;28;20462;-77
2023/09/24 10:56:16;;;;;;;1.73;1.50;;;;;;;26.77;27.27;98926.88;4989043;28;20532;-77
2023/09/24 10:58:50;;;;;;;2.53;1.83;;;;;;;26.85;26.84;98928.22;4988054;28;20466;-77
2023/09/24 11:01:17;;;;;;;1.80;1.70;;;;;;;26.44;28.26;98932.03;4989670;28;20458;-77
2023/09/24 11:03:44;;;;;;;3.17;2.10;;;;;;;27.06;27.52;98918.69;4989658;28;20481;-77
2023/09/24 11:06:10;;;;;;;1.77;1.63;;;;;;;26.87;27.30;98926.00;4988852;28;20456;-77
2023/09/24 11:08:37;;;;;;;2.30;1.53;;;;;;;26.83;27.51;98913.78;4989218;28;20481;-78
2023/09/24 11:11:04;;;;;;;2.10;1.87;;;;;;;26.20;28.52;98922.66;4989201;28;20818;-77
2023/09/24 11:13:31;;;;;;;4.53;1.70;;;;;;;26.72;27.97;98924.13;4988023;28;20493;-78
2023/09/24 11:15:59;;;;;;;3.07;2.20;;;;;;;26.98;27.28;98927.63;4989107;28;21226;-77
2023/09/24 11:18:28;;;;;;;1.87;1.77;;;;;;;26.89;27.27;98924.59;4989101;28;20452;-77
2023/09/24 11:20:55;;;;;;;2.53;2.00;;;;;;;25.73;28.23;98921.06;4988495;28;20470;-77
2023/09/24 11:23:22;;;;;;;2.53;1.80;;;;;;;25.59;27.93;98914.41;4988113;28;20466;-77
2023/09/24 11:25:51;;;;;;;1.70;1.60;;;;;;;25.68;27.40;98914.69;4987830;28;21013;-77
2023/09/24 11:28:19;;;;;;;2.07;1.87;;;;;;;25.94;28.17;98909.97;4987960;28;20533;-77
2023/09/24 11:30:47;;;;;;;2.30;1.87;;;;;;;25.80;27.67;98909.69;4988189;28;20462;-77
2023/09/24 11:33:17;;;;;;;2.60;1.93;;;;;;;26.54;27.61;98902.56;4988922;28;20587;-77
2023/09/24 11:35:45;;;;;;;2.60;1.80;;;;;;;26.43;27.33;98904.53;4988990;28;20468;-77
2023/09/24 11:38:12;;;;;;;1.73;1.43;;;;;;;26.41;28.19;98904.00;4988674;28;20857;-77